createdAt,value
2017-11-11T00:00:22.262Z,1001.46
2017-11-11T00:01:22.264Z,1001.44
2017-11-11T00:02:22.210Z,1001.46
2017-11-11T00:03:22.279Z,1001.45
2017-11-11T00:04:22.215Z,1001.47
2017-11-11T00:05:22.283Z,1001.44
2017-11-11T00:06:22.282Z,1001.39
2017-11-11T00:07:22.212Z,1001.37
2017-11-11T00:08:22.498Z,1001.36
2017-11-11T00:09:22.283Z,1001.36
2017-11-11T00:10:22.178Z,1001.39
2017-11-11T00:11:22.216Z,1001.39
2017-11-11T00:12:22.216Z,1001.47
2017-11-11T00:13:22.290Z,1001.44
2017-11-11T00:14:22.230Z,1001.47
2017-11-11T00:15:22.216Z,1001.49
2017-11-11T00:16:22.289Z,1001.51
2017-11-11T00:17:22.216Z,1001.56
2017-11-11T00:18:22.290Z,1001.57
2017-11-11T00:19:22.290Z,1001.57
2017-11-11T00:20:22.223Z,1001.63
2017-11-11T00:21:22.297Z,1001.59
2017-11-11T00:22:22.221Z,1001.58
2017-11-11T00:23:22.192Z,1001.58
2017-11-11T00:24:22.226Z,1001.58
2017-11-11T00:25:22.213Z,1001.51
2017-11-11T00:26:22.178Z,1001.53
2017-11-11T00:27:22.284Z,1001.53
2017-11-11T00:28:22.286Z,1001.50
2017-11-11T00:29:22.201Z,1001.54
2017-11-11T00:30:22.261Z,1001.54
2017-11-11T00:31:22.178Z,1001.52
2017-11-11T00:32:22.290Z,1001.55
2017-11-11T00:33:22.201Z,1001.56
2017-11-11T00:34:22.287Z,1001.53
2017-11-11T00:35:22.206Z,1001.55
2017-11-11T00:36:22.264Z,1001.51
2017-11-11T00:37:22.165Z,1001.52
2017-11-11T00:38:22.284Z,1001.54
2017-11-11T00:39:22.183Z,1001.53
2017-11-11T00:40:22.171Z,1001.53
2017-11-11T00:41:22.288Z,1001.52
2017-11-11T00:42:22.288Z,1001.51
2017-11-11T00:43:22.301Z,1001.47
2017-11-11T00:44:22.177Z,1001.42
2017-11-11T00:45:22.300Z,1001.47
2017-11-11T00:46:22.238Z,1001.43
2017-11-11T00:47:22.240Z,1001.44
2017-11-11T00:48:22.244Z,1001.45
2017-11-11T00:49:22.297Z,1001.42
2017-11-11T00:50:22.296Z,1001.42
2017-11-11T00:51:22.240Z,1001.40
2017-11-11T00:52:22.308Z,1001.43
2017-11-11T00:53:22.193Z,1001.41
2017-11-11T00:54:22.241Z,1001.45
2017-11-11T00:55:22.242Z,1001.35
2017-11-11T00:56:22.311Z,1001.38
2017-11-11T00:57:22.252Z,1001.34
2017-11-11T00:58:22.200Z,1001.37
2017-11-11T00:59:22.246Z,1001.34
2017-11-11T01:00:22.321Z,1001.34
2017-11-11T01:01:22.318Z,1001.38
2017-11-11T01:02:22.282Z,1001.37
2017-11-11T01:03:22.316Z,1001.39
2017-11-11T01:04:22.289Z,1001.44
2017-11-11T01:05:22.250Z,1001.44
2017-11-11T01:06:22.318Z,1001.47
2017-11-11T01:07:22.271Z,1001.41
2017-11-11T01:08:22.278Z,1001.42
2017-11-11T01:09:22.268Z,1001.39
2017-11-11T01:10:22.318Z,1001.40
2017-11-11T01:11:22.253Z,1001.38
2017-11-11T01:12:22.450Z,1001.41
2017-11-11T01:13:22.321Z,1001.43
2017-11-11T01:14:22.337Z,1001.41
2017-11-11T01:15:22.267Z,1001.37
2017-11-11T01:16:22.324Z,1001.34
2017-11-11T01:17:22.322Z,1001.39
2017-11-11T01:18:22.358Z,1001.38
2017-11-11T01:19:22.340Z,1001.40
2017-11-11T01:20:22.212Z,1001.39
2017-11-11T01:21:22.260Z,1001.47
2017-11-11T01:22:22.329Z,1001.43
2017-11-11T01:23:22.262Z,1001.40
2017-11-11T01:24:22.327Z,1001.42
2017-11-11T01:25:22.307Z,1001.44
2017-11-11T01:26:22.261Z,1001.48
2017-11-11T01:27:22.368Z,1001.44
2017-11-11T01:28:22.331Z,1001.44
2017-11-11T01:29:22.263Z,1001.40
2017-11-11T01:30:22.330Z,1001.45
2017-11-11T01:31:22.335Z,1001.44
2017-11-11T01:32:22.265Z,1001.40
2017-11-11T01:33:22.333Z,1001.42
2017-11-11T01:34:22.294Z,1001.35
2017-11-11T01:35:22.264Z,1001.37
2017-11-11T01:36:22.336Z,1001.34
2017-11-11T01:37:22.266Z,1001.34
2017-11-11T01:38:22.338Z,1001.35
2017-11-11T01:39:22.338Z,1001.37
2017-11-11T01:40:22.278Z,1001.33
2017-11-11T01:41:22.270Z,1001.34
2017-11-11T01:42:22.343Z,1001.38
2017-11-11T01:43:22.304Z,1001.30
2017-11-11T01:44:22.266Z,1001.30
2017-11-11T01:45:22.342Z,1001.30
2017-11-11T01:46:22.342Z,1001.29
2017-11-11T01:47:22.345Z,1001.25
2017-11-11T01:48:22.344Z,1001.21
2017-11-11T01:49:22.430Z,1001.21
2017-11-11T01:50:22.342Z,1001.20
2017-11-11T01:51:22.275Z,1001.21
2017-11-11T01:52:22.281Z,1001.21
2017-11-11T01:53:22.312Z,1001.09
2017-11-11T01:54:22.312Z,1001.11
2017-11-11T01:55:22.331Z,1001.09
2017-11-11T01:56:22.220Z,1001.07
2017-11-11T01:57:22.330Z,1001.06
2017-11-11T01:58:22.338Z,1001.03
2017-11-11T01:59:22.338Z,1000.96
2017-11-11T02:00:22.337Z,1000.95
2017-11-11T02:01:22.252Z,1001.01
2017-11-11T02:02:22.339Z,1000.95
2017-11-11T02:03:22.354Z,1000.98
2017-11-11T02:04:22.354Z,1000.92
2017-11-11T02:05:22.353Z,1000.93
2017-11-11T02:06:22.284Z,1000.94
2017-11-11T02:07:22.282Z,1000.93
2017-11-11T02:08:22.308Z,1000.90
2017-11-11T02:09:22.357Z,1000.86
2017-11-11T02:10:22.291Z,1000.86
2017-11-11T02:11:22.355Z,1000.85
2017-11-11T02:12:22.288Z,1000.85
2017-11-11T02:13:22.264Z,1000.79
2017-11-11T02:14:22.349Z,1000.85
2017-11-11T02:15:22.348Z,1000.84
2017-11-11T02:16:22.263Z,1000.83
2017-11-11T02:17:22.245Z,1000.79
2017-11-11T02:18:22.350Z,1000.78
2017-11-11T02:19:22.360Z,1000.80
2017-11-11T02:20:22.295Z,1000.82
2017-11-11T02:21:22.261Z,1000.81
2017-11-11T02:22:22.229Z,1000.80
2017-11-11T02:23:22.307Z,1000.77
2017-11-11T02:24:22.211Z,1000.74
2017-11-11T02:25:22.220Z,1000.72
2017-11-11T02:26:22.308Z,1000.70
2017-11-11T02:27:22.215Z,1000.70
2017-11-11T02:28:22.265Z,1000.65
2017-11-11T02:29:22.314Z,1000.70
2017-11-11T02:30:22.266Z,1000.67
2017-11-11T02:31:22.387Z,1000.63
2017-11-11T02:32:22.266Z,1000.61
2017-11-11T02:33:22.301Z,1000.63
2017-11-11T02:34:22.369Z,1000.66
2017-11-11T02:35:22.263Z,1000.66
2017-11-11T02:36:22.307Z,1000.68
2017-11-11T02:37:22.374Z,1000.63
2017-11-11T02:38:22.307Z,1000.62
2017-11-11T02:39:22.385Z,1000.64
2017-11-11T02:40:22.310Z,1000.63
2017-11-11T02:41:22.394Z,1000.65
2017-11-11T02:42:22.307Z,1000.61
2017-11-11T02:43:22.376Z,1000.63
2017-11-11T02:44:22.304Z,1000.61
2017-11-11T02:45:22.378Z,1000.58
2017-11-11T02:46:22.313Z,1000.63
2017-11-11T02:47:22.379Z,1000.55
2017-11-11T02:48:22.378Z,1000.54
2017-11-11T02:49:22.348Z,1000.53
2017-11-11T02:50:22.380Z,1000.55
2017-11-11T02:51:22.328Z,1000.55
2017-11-11T02:52:22.315Z,1000.46
2017-11-11T02:53:22.274Z,1000.46
2017-11-11T02:54:22.269Z,1000.49
2017-11-11T02:55:22.284Z,1000.39
2017-11-11T02:56:22.364Z,1000.44
2017-11-11T02:57:22.270Z,1000.41
2017-11-11T02:58:22.364Z,1000.37
2017-11-11T02:59:22.261Z,1000.35
2017-11-11T03:00:22.277Z,1000.43
2017-11-11T03:01:22.321Z,1000.41
2017-11-11T03:02:22.348Z,1000.41
2017-11-11T03:03:22.335Z,1000.43
2017-11-11T03:04:22.355Z,1000.42
2017-11-11T03:05:22.287Z,1000.46
2017-11-11T03:06:22.447Z,1000.43
2017-11-11T03:07:22.354Z,1000.46
2017-11-11T03:08:22.381Z,1000.46
2017-11-11T03:09:22.376Z,1000.44
2017-11-11T03:10:22.297Z,1000.47
2017-11-11T03:11:22.303Z,1000.43
2017-11-11T03:12:22.380Z,1000.44
2017-11-11T03:13:22.347Z,1000.45
2017-11-11T03:14:22.394Z,1000.47
2017-11-11T03:15:22.328Z,1000.45
2017-11-11T03:16:22.396Z,1000.43
2017-11-11T03:17:22.329Z,1000.42
2017-11-11T03:18:22.335Z,1000.41
2017-11-11T03:19:22.327Z,1000.38
2017-11-11T03:20:22.332Z,1000.34
2017-11-11T03:21:22.330Z,1000.37
2017-11-11T03:22:22.399Z,1000.39
2017-11-11T03:23:22.337Z,1000.33
2017-11-11T03:24:22.334Z,1000.32
2017-11-11T03:25:22.303Z,1000.24
2017-11-11T03:26:22.336Z,1000.28
2017-11-11T03:27:22.390Z,1000.26
2017-11-11T03:28:22.370Z,1000.18
2017-11-11T03:29:22.280Z,1000.20
2017-11-11T03:30:22.340Z,1000.13
2017-11-11T03:31:22.346Z,1000.15
2017-11-11T03:32:22.279Z,1000.13
2017-11-11T03:33:22.302Z,1000.13
2017-11-11T03:34:22.259Z,1000.09
2017-11-11T03:35:22.355Z,1000.04
2017-11-11T03:36:22.422Z,999.99
2017-11-11T03:37:22.351Z,999.99
2017-11-11T03:38:22.361Z,999.98
2017-11-11T03:39:22.318Z,999.90
2017-11-11T03:40:22.357Z,999.96
2017-11-11T03:41:22.260Z,999.89
2017-11-11T03:42:22.314Z,999.91
2017-11-11T03:43:22.340Z,999.93
2017-11-11T03:44:22.345Z,999.86
2017-11-11T03:45:22.348Z,999.80
2017-11-11T03:46:22.414Z,999.85
2017-11-11T03:47:22.345Z,999.80
2017-11-11T03:48:22.456Z,999.77
2017-11-11T03:49:22.347Z,999.82
2017-11-11T03:50:22.455Z,999.72
2017-11-11T03:51:22.416Z,999.80
2017-11-11T03:52:22.353Z,999.72
2017-11-11T03:53:22.417Z,999.74
2017-11-11T03:54:22.352Z,999.78
2017-11-11T03:55:22.417Z,999.78
2017-11-11T03:56:22.355Z,999.81
2017-11-11T03:57:22.420Z,999.79
2017-11-11T03:58:22.350Z,999.78
2017-11-11T03:59:22.427Z,999.80
2017-11-11T04:00:22.389Z,999.80
2017-11-11T04:01:22.451Z,999.69
2017-11-11T04:02:22.424Z,999.72
2017-11-11T04:03:22.425Z,999.74
2017-11-11T04:04:22.400Z,999.72
2017-11-11T04:05:22.426Z,999.87
2017-11-11T04:06:22.427Z,999.77
2017-11-11T04:07:22.354Z,999.80
2017-11-11T04:08:22.441Z,999.75
2017-11-11T04:09:22.430Z,999.75
2017-11-11T04:10:22.400Z,999.74
2017-11-11T04:11:22.361Z,999.70
2017-11-11T04:12:22.430Z,999.66
2017-11-11T04:13:22.374Z,999.68
2017-11-11T04:14:22.466Z,999.71
2017-11-11T04:15:22.440Z,999.64
2017-11-11T04:16:22.360Z,999.60
2017-11-11T04:17:22.365Z,999.62
2017-11-11T04:18:22.434Z,999.58
2017-11-11T04:19:22.454Z,999.62
2017-11-11T04:20:22.391Z,999.65
2017-11-11T04:21:22.441Z,999.65
2017-11-11T04:22:22.362Z,999.64
2017-11-11T04:23:22.437Z,999.66
2017-11-11T04:24:22.364Z,999.69
2017-11-11T04:25:22.368Z,999.68
2017-11-11T04:26:22.439Z,999.72
2017-11-11T04:27:22.416Z,999.75
2017-11-11T04:28:22.372Z,999.76
2017-11-11T04:29:22.439Z,999.76
2017-11-11T04:30:22.367Z,999.82
2017-11-11T04:31:22.442Z,999.88
2017-11-11T04:32:22.374Z,999.89
2017-11-11T04:33:22.442Z,999.88
2017-11-11T04:34:22.375Z,999.96
2017-11-11T04:35:22.442Z,999.87
2017-11-11T04:36:22.444Z,999.92
2017-11-11T04:37:22.413Z,999.89
2017-11-11T04:38:22.375Z,999.88
2017-11-11T04:39:22.446Z,999.88
2017-11-11T04:40:22.377Z,999.87
2017-11-11T04:41:22.446Z,999.91
2017-11-11T04:42:22.382Z,999.81
2017-11-11T04:43:22.447Z,999.88
2017-11-11T04:44:22.379Z,999.80
2017-11-11T04:45:22.449Z,999.81
2017-11-11T04:46:22.380Z,999.83
2017-11-11T04:47:22.381Z,999.81
2017-11-11T04:48:22.407Z,999.76
2017-11-11T04:49:22.451Z,999.81
2017-11-11T04:50:22.383Z,999.81
2017-11-11T04:51:22.453Z,999.85
2017-11-11T04:52:22.385Z,999.85
2017-11-11T04:53:22.352Z,999.82
2017-11-11T04:54:22.450Z,999.90
2017-11-11T04:55:22.422Z,999.84
2017-11-11T04:56:22.445Z,999.80
2017-11-11T04:57:22.479Z,999.84
2017-11-11T04:58:22.362Z,999.76
2017-11-11T04:59:22.449Z,999.74
2017-11-11T05:00:22.396Z,999.76
2017-11-11T05:01:22.490Z,999.80
2017-11-11T05:02:22.414Z,999.79
2017-11-11T05:03:22.391Z,999.78
2017-11-11T05:04:22.424Z,999.72
2017-11-11T05:05:22.473Z,999.76
2017-11-11T05:06:22.461Z,999.75
2017-11-11T05:07:22.395Z,999.77
2017-11-11T05:08:22.397Z,999.78
2017-11-11T05:09:22.463Z,999.72
2017-11-11T05:10:22.400Z,999.70
2017-11-11T05:11:22.398Z,999.70
2017-11-11T05:12:22.467Z,999.71
2017-11-11T05:13:22.396Z,999.67
2017-11-11T05:14:22.466Z,999.71
2017-11-11T05:15:22.465Z,999.70
2017-11-11T05:16:22.496Z,999.77
2017-11-11T05:17:22.446Z,999.71
2017-11-11T05:18:22.406Z,999.70
2017-11-11T05:19:22.478Z,999.71
2017-11-11T05:20:22.399Z,999.74
2017-11-11T05:21:22.470Z,999.73
2017-11-11T05:22:22.402Z,999.71
2017-11-11T05:23:22.350Z,999.71
2017-11-11T05:24:22.400Z,999.75
2017-11-11T05:25:22.489Z,999.73
2017-11-11T05:26:22.474Z,999.68
2017-11-11T05:27:22.429Z,999.71
2017-11-11T05:28:22.476Z,999.67
2017-11-11T05:29:22.407Z,999.64
2017-11-11T05:30:22.476Z,999.68
2017-11-11T05:31:22.410Z,999.62
2017-11-11T05:32:22.479Z,999.64
2017-11-11T05:33:22.368Z,999.53
2017-11-11T05:34:22.436Z,999.57
2017-11-11T05:35:22.350Z,999.56
2017-11-11T05:36:22.440Z,999.60
2017-11-11T05:37:22.457Z,999.56
2017-11-11T05:38:22.362Z,999.54
2017-11-11T05:39:22.345Z,999.51
2017-11-11T05:40:22.441Z,999.48
2017-11-11T05:41:22.427Z,999.45
2017-11-11T05:42:22.344Z,999.41
2017-11-11T05:43:22.486Z,999.31
2017-11-11T05:44:22.411Z,999.34
2017-11-11T05:45:22.495Z,999.32
2017-11-11T05:46:22.485Z,999.31
2017-11-11T05:47:22.486Z,999.37
2017-11-11T05:48:22.511Z,999.24
2017-11-11T05:49:22.416Z,999.25
2017-11-11T05:50:22.489Z,999.29
2017-11-11T05:51:22.424Z,999.24
2017-11-11T05:52:22.513Z,999.23
2017-11-11T05:53:22.460Z,999.28
2017-11-11T05:54:22.477Z,999.19
2017-11-11T05:55:22.423Z,999.21
2017-11-11T05:56:22.476Z,999.17
2017-11-11T05:57:22.395Z,999.15
2017-11-11T05:58:22.492Z,999.16
2017-11-11T05:59:22.424Z,999.18
2017-11-11T06:00:22.376Z,999.20
2017-11-11T06:01:22.402Z,999.20
2017-11-11T06:02:22.464Z,999.16
2017-11-11T06:03:22.426Z,999.18
2017-11-11T06:04:22.434Z,999.17
2017-11-11T06:05:22.447Z,999.18
2017-11-11T06:06:22.499Z,999.17
2017-11-11T06:07:22.499Z,999.22
2017-11-11T06:08:22.497Z,999.12
2017-11-11T06:09:22.434Z,999.13
2017-11-11T06:10:22.434Z,999.13
2017-11-11T06:11:22.503Z,999.13
2017-11-11T06:12:22.431Z,999.16
2017-11-11T06:13:22.451Z,999.12
2017-11-11T06:14:22.500Z,999.10
2017-11-11T06:15:22.474Z,999.06
2017-11-11T06:16:22.409Z,999.10
2017-11-11T06:17:22.441Z,999.08
2017-11-11T06:18:22.391Z,999.06
2017-11-11T06:19:22.371Z,999.08
2017-11-11T06:20:22.416Z,999.10
2017-11-11T06:21:22.505Z,999.16
2017-11-11T06:22:22.430Z,999.12
2017-11-11T06:23:22.442Z,999.13
2017-11-11T06:24:22.508Z,999.09
2017-11-11T06:25:22.483Z,999.06
2017-11-11T06:26:22.438Z,999.09
2017-11-11T06:27:22.512Z,999.09
2017-11-11T06:28:22.450Z,999.02
2017-11-11T06:29:22.512Z,999.04
2017-11-11T06:30:22.512Z,998.99
2017-11-11T06:31:22.444Z,999.00
2017-11-11T06:32:22.515Z,999.03
2017-11-11T06:33:22.516Z,999.06
2017-11-11T06:34:22.446Z,999.04
2017-11-11T06:35:22.514Z,999.02
2017-11-11T06:36:22.474Z,999.06
2017-11-11T06:37:22.445Z,999.00
2017-11-11T06:38:22.519Z,999.00
2017-11-11T06:39:22.525Z,998.99
2017-11-11T06:40:22.450Z,998.97
2017-11-11T06:41:22.523Z,998.99
2017-11-11T06:42:22.452Z,999.00
2017-11-11T06:43:22.520Z,999.05
2017-11-11T06:44:22.451Z,999.07
2017-11-11T06:45:22.521Z,999.03
2017-11-11T06:46:22.451Z,999.03
2017-11-11T06:47:22.454Z,999.05
2017-11-11T06:48:22.523Z,999.07
2017-11-11T06:49:22.525Z,999.00
2017-11-11T06:50:22.526Z,999.03
2017-11-11T06:51:22.524Z,999.05
2017-11-11T06:52:22.456Z,999.07
2017-11-11T06:53:22.423Z,999.04
2017-11-11T06:54:22.425Z,999.08
2017-11-11T06:55:22.470Z,999.06
2017-11-11T06:56:22.427Z,999.08
2017-11-11T06:57:22.424Z,999.05
2017-11-11T06:58:22.474Z,999.03
2017-11-11T06:59:22.424Z,999.10
2017-11-11T07:00:22.429Z,999.07
2017-11-11T07:01:22.481Z,999.09
2017-11-11T07:02:22.389Z,999.09
2017-11-11T07:03:22.545Z,999.04
2017-11-11T07:04:22.453Z,999.02
2017-11-11T07:05:22.389Z,999.04
2017-11-11T07:06:22.435Z,999.03
2017-11-11T07:07:22.437Z,999.05
2017-11-11T07:08:22.480Z,999.06
2017-11-11T07:09:22.478Z,999.02
2017-11-11T07:10:22.392Z,998.99
2017-11-11T07:11:22.436Z,998.92
2017-11-11T07:12:22.432Z,998.86
2017-11-11T07:13:22.486Z,998.89
2017-11-11T07:14:22.537Z,998.82
2017-11-11T07:15:22.520Z,998.78
2017-11-11T07:16:22.506Z,998.80
2017-11-11T07:17:22.507Z,998.80
2017-11-11T07:18:22.469Z,998.77
2017-11-11T07:19:22.424Z,998.83
2017-11-11T07:20:22.489Z,998.83
2017-11-11T07:21:22.509Z,998.85
2017-11-11T07:22:22.508Z,998.85
2017-11-11T07:23:22.427Z,998.86
2017-11-11T07:24:22.472Z,998.85
2017-11-11T07:25:22.502Z,998.81
2017-11-11T07:26:22.480Z,998.81
2017-11-11T07:27:22.507Z,998.80
2017-11-11T07:28:22.526Z,998.76
2017-11-11T07:29:22.505Z,998.75
2017-11-11T07:30:22.513Z,998.79
2017-11-11T07:31:22.503Z,998.75
2017-11-11T07:32:22.435Z,998.79
2017-11-11T07:33:22.550Z,998.78
2017-11-11T07:34:22.549Z,998.75
2017-11-11T07:35:22.477Z,998.73
2017-11-11T07:36:22.555Z,998.73
2017-11-11T07:37:22.480Z,998.73
2017-11-11T07:38:22.551Z,998.66
2017-11-11T07:39:22.550Z,998.68
2017-11-11T07:40:22.487Z,998.58
2017-11-11T07:41:22.561Z,998.56
2017-11-11T07:42:22.483Z,998.56
2017-11-11T07:43:22.368Z,998.59
2017-11-11T07:44:22.411Z,998.50
2017-11-11T07:45:22.410Z,998.49
2017-11-11T07:46:22.364Z,998.50
2017-11-11T07:47:22.371Z,998.48
2017-11-11T07:48:22.460Z,998.48
2017-11-11T07:49:22.438Z,998.49
2017-11-11T07:50:22.461Z,998.49
2017-11-11T07:51:22.412Z,998.44
2017-11-11T07:52:22.463Z,998.43
2017-11-11T07:53:22.477Z,998.44
2017-11-11T07:54:22.420Z,998.47
2017-11-11T07:55:22.539Z,998.39
2017-11-11T07:56:22.452Z,998.36
2017-11-11T07:57:22.517Z,998.34
2017-11-11T07:58:22.530Z,998.33
2017-11-11T07:59:22.468Z,998.35
2017-11-11T08:00:22.451Z,998.32
2017-11-11T08:01:22.544Z,998.29
2017-11-11T08:02:22.468Z,998.24
2017-11-11T08:03:22.529Z,998.29
2017-11-11T08:04:22.496Z,998.33
2017-11-11T08:05:22.427Z,998.28
2017-11-11T08:06:22.439Z,998.29
2017-11-11T08:07:22.512Z,998.35
2017-11-11T08:08:22.438Z,998.36
2017-11-11T08:09:22.549Z,998.36
2017-11-11T08:10:22.441Z,998.35
2017-11-11T08:11:22.518Z,998.38
2017-11-11T08:12:22.530Z,998.33
2017-11-11T08:13:22.523Z,998.35
2017-11-11T08:14:22.508Z,998.37
2017-11-11T08:15:22.578Z,998.42
2017-11-11T08:16:22.509Z,998.47
2017-11-11T08:17:22.506Z,998.45
2017-11-11T08:18:22.579Z,998.40
2017-11-11T08:19:22.506Z,998.40
2017-11-11T08:20:22.508Z,998.42
2017-11-11T08:21:22.604Z,998.37
2017-11-11T08:22:22.580Z,998.40
2017-11-11T08:23:22.514Z,998.35
2017-11-11T08:24:22.471Z,998.34
2017-11-11T08:25:22.429Z,998.28
2017-11-11T08:26:22.477Z,998.29
2017-11-11T08:27:22.508Z,998.31
2017-11-11T08:28:22.404Z,998.31
2017-11-11T08:29:22.418Z,998.29
2017-11-11T08:30:22.414Z,998.31
2017-11-11T08:31:22.519Z,998.28
2017-11-11T08:32:22.412Z,998.27
2017-11-11T08:33:22.508Z,998.24
2017-11-11T08:34:22.529Z,998.18
2017-11-11T08:35:22.584Z,998.19
2017-11-11T08:36:22.570Z,998.17
2017-11-11T08:37:22.552Z,998.14
2017-11-11T08:38:22.554Z,998.14
2017-11-11T08:39:22.539Z,998.09
2017-11-11T08:40:22.557Z,998.06
2017-11-11T08:41:22.498Z,998.11
2017-11-11T08:42:22.588Z,998.05
2017-11-11T08:44:22.590Z,998.12
2017-11-11T08:45:22.589Z,998.13
2017-11-11T08:46:22.504Z,998.15
2017-11-11T08:47:22.582Z,998.07
2017-11-11T08:48:22.473Z,998.03
2017-11-11T08:49:22.494Z,998.04
2017-11-11T08:50:22.468Z,997.98
2017-11-11T08:51:22.539Z,998.01
2017-11-11T08:52:22.517Z,997.95
2017-11-11T08:53:22.595Z,997.95
2017-11-11T08:54:22.530Z,997.91
2017-11-11T08:55:22.599Z,997.93
2017-11-11T08:56:22.522Z,997.93
2017-11-11T08:57:22.601Z,997.92
2017-11-11T08:58:22.572Z,997.91
2017-11-11T08:59:22.601Z,997.95
2017-11-11T09:00:22.530Z,997.98
2017-11-11T09:01:22.602Z,997.96
2017-11-11T09:02:22.526Z,998.01
2017-11-11T09:03:22.608Z,997.98
2017-11-11T09:04:22.533Z,997.96
2017-11-11T09:05:22.602Z,997.92
2017-11-11T09:06:22.534Z,997.90
2017-11-11T09:07:22.610Z,997.88
2017-11-11T09:08:22.534Z,997.87
2017-11-11T09:09:22.618Z,997.91
2017-11-11T09:10:22.537Z,997.88
2017-11-11T09:11:22.608Z,997.90
2017-11-11T09:12:22.541Z,997.90
2017-11-11T09:13:22.612Z,997.80
2017-11-11T09:14:22.535Z,997.80
2017-11-11T09:15:22.612Z,997.77
2017-11-11T09:16:22.539Z,997.85
2017-11-11T09:17:22.612Z,997.76
2017-11-11T09:18:22.536Z,997.76
2017-11-11T09:19:22.540Z,997.82
2017-11-11T09:20:22.613Z,997.78
2017-11-11T09:21:22.543Z,997.75
2017-11-11T09:22:22.621Z,997.71
2017-11-11T09:23:22.542Z,997.79
2017-11-11T09:24:22.616Z,997.74
2017-11-11T09:25:22.614Z,997.71
2017-11-11T09:26:22.538Z,997.71
2017-11-11T09:27:22.616Z,997.71
2017-11-11T09:28:22.547Z,997.65
2017-11-11T09:29:22.616Z,997.68
2017-11-11T09:30:22.542Z,997.64
2017-11-11T09:31:22.620Z,997.59
2017-11-11T09:32:22.563Z,997.60
2017-11-11T09:33:22.616Z,997.67
2017-11-11T09:34:22.564Z,997.67
2017-11-11T09:35:22.620Z,997.61
2017-11-11T09:36:22.582Z,997.66
2017-11-11T09:37:22.610Z,997.58
2017-11-11T09:38:22.586Z,997.62
2017-11-11T09:39:22.624Z,997.57
2017-11-11T09:40:22.621Z,997.66
2017-11-11T09:41:22.613Z,997.63
2017-11-11T09:42:22.626Z,997.68
2017-11-11T09:43:22.502Z,997.63
2017-11-11T09:44:22.557Z,997.73
2017-11-11T09:45:22.627Z,997.62
2017-11-11T09:46:22.559Z,997.62
2017-11-11T09:47:22.631Z,997.65
2017-11-11T09:48:22.564Z,997.59
2017-11-11T09:49:22.630Z,997.56
2017-11-11T09:50:22.558Z,997.60
2017-11-11T09:51:22.632Z,997.60
2017-11-11T09:52:22.565Z,997.57
2017-11-11T09:53:22.635Z,997.56
2017-11-11T09:54:22.558Z,997.55
2017-11-11T09:55:22.633Z,997.53
2017-11-11T09:56:22.670Z,997.51
2017-11-11T09:57:22.569Z,997.52
2017-11-11T09:58:22.633Z,997.55
2017-11-11T09:59:22.565Z,997.57
2017-11-11T10:00:22.646Z,997.56
2017-11-11T10:01:22.566Z,997.53
2017-11-11T10:02:22.642Z,997.51
2017-11-11T10:03:22.565Z,997.52
2017-11-11T10:04:22.639Z,997.54
2017-11-11T10:05:22.568Z,997.48
2017-11-11T10:06:22.638Z,997.47
2017-11-11T10:07:22.799Z,997.47
2017-11-11T10:08:22.589Z,997.45
2017-11-11T10:09:22.649Z,997.43
2017-11-11T10:10:22.567Z,997.40
2017-11-11T10:11:22.641Z,997.41
2017-11-11T10:12:22.573Z,997.44
2017-11-11T10:13:22.645Z,997.42
2017-11-11T10:14:22.590Z,997.36
2017-11-11T10:15:22.636Z,997.40
2017-11-11T10:16:22.628Z,997.43
2017-11-11T10:17:22.621Z,997.34
2017-11-11T10:18:22.642Z,997.39
2017-11-11T10:19:22.550Z,997.43
2017-11-11T10:20:22.631Z,997.40
2017-11-11T10:21:22.561Z,997.30
2017-11-11T10:22:22.633Z,997.35
2017-11-11T10:23:22.574Z,997.30
2017-11-11T10:24:22.539Z,997.34
2017-11-11T10:25:22.613Z,997.35
2017-11-11T10:26:22.616Z,997.28
2017-11-11T10:27:22.605Z,997.27
2017-11-11T10:28:22.595Z,997.30
2017-11-11T10:29:22.600Z,997.24
2017-11-11T10:30:22.585Z,997.27
2017-11-11T10:31:22.607Z,997.22
2017-11-11T10:32:22.622Z,997.28
2017-11-11T10:33:22.559Z,997.25
2017-11-11T10:34:22.660Z,997.19
2017-11-11T10:35:22.585Z,997.15
2017-11-11T10:36:22.658Z,997.17
2017-11-11T10:37:22.585Z,997.21
2017-11-11T10:38:22.660Z,997.16
2017-11-11T10:39:22.587Z,997.16
2017-11-11T10:40:22.588Z,997.19
2017-11-11T10:41:22.590Z,997.17
2017-11-11T10:42:22.661Z,997.11
2017-11-11T10:43:22.590Z,997.07
2017-11-11T10:44:22.616Z,997.06
2017-11-11T10:45:22.540Z,997.09
2017-11-11T10:46:22.515Z,997.11
2017-11-11T10:47:22.553Z,997.05
2017-11-11T10:48:22.577Z,997.02
2017-11-11T10:49:22.643Z,997.08
2017-11-11T10:50:22.612Z,997.09
2017-11-11T10:51:22.630Z,997.08
2017-11-11T10:52:22.610Z,997.03
2017-11-11T10:53:22.534Z,997.03
2017-11-11T10:54:22.565Z,997.03
2017-11-11T10:55:22.527Z,997.02
2017-11-11T10:56:22.542Z,997.04
2017-11-11T10:57:22.647Z,996.99
2017-11-11T10:58:22.535Z,996.96
2017-11-11T10:59:22.541Z,996.97
2017-11-11T11:00:22.533Z,996.92
2017-11-11T11:01:22.751Z,996.96
2017-11-11T11:02:22.531Z,996.92
2017-11-11T11:03:22.623Z,996.87
2017-11-11T11:04:22.679Z,996.84
2017-11-11T11:05:22.682Z,996.91
2017-11-11T11:06:22.601Z,996.88
2017-11-11T11:07:22.678Z,996.85
2017-11-11T11:08:22.604Z,996.82
2017-11-11T11:09:22.678Z,996.87
2017-11-11T11:10:22.605Z,996.87
2017-11-11T11:11:22.682Z,996.82
2017-11-11T11:12:22.608Z,996.75
2017-11-11T11:13:22.764Z,996.82
2017-11-11T11:14:22.570Z,996.79
2017-11-11T11:15:22.654Z,996.77
2017-11-11T11:16:22.608Z,996.75
2017-11-11T11:17:22.610Z,996.71
2017-11-11T11:18:22.554Z,996.70
2017-11-11T11:19:22.642Z,996.71
2017-11-11T11:20:22.550Z,996.68
2017-11-11T11:21:22.565Z,996.67
2017-11-11T11:22:22.632Z,996.63
2017-11-11T11:23:22.537Z,996.65
2017-11-11T11:24:22.611Z,996.63
2017-11-11T11:25:22.689Z,996.64
2017-11-11T11:26:22.613Z,996.61
2017-11-11T11:27:22.617Z,996.59
2017-11-11T11:28:22.692Z,996.60
2017-11-11T11:29:22.612Z,996.52
2017-11-11T11:30:22.695Z,996.52
2017-11-11T11:31:22.619Z,996.53
2017-11-11T11:32:22.694Z,996.43
2017-11-11T11:33:22.625Z,996.40
2017-11-11T11:34:22.621Z,996.38
2017-11-11T11:35:22.695Z,996.36
2017-11-11T11:36:22.620Z,996.33
2017-11-11T11:37:22.696Z,996.32
2017-11-11T11:38:22.625Z,996.27
2017-11-11T11:39:22.631Z,996.20
2017-11-11T11:40:22.697Z,996.16
2017-11-11T11:41:22.742Z,996.14
2017-11-11T11:42:22.698Z,996.05
2017-11-11T11:43:22.620Z,996.07
2017-11-11T11:44:22.644Z,996.02
2017-11-11T11:45:22.648Z,996.08
2017-11-11T11:46:22.604Z,996.02
2017-11-11T11:47:22.664Z,995.99
2017-11-11T11:48:22.624Z,996.01
2017-11-11T11:49:22.646Z,996.05
2017-11-11T11:50:22.690Z,995.96
2017-11-11T11:51:22.690Z,995.94
2017-11-11T11:52:22.690Z,995.97
2017-11-11T11:53:22.599Z,995.98
2017-11-11T11:54:22.700Z,995.94
2017-11-11T11:55:22.632Z,995.99
2017-11-11T11:56:22.908Z,995.84
2017-11-11T11:57:22.708Z,995.95
2017-11-11T11:58:22.707Z,996.01
2017-11-11T11:59:22.636Z,995.95
2017-11-11T12:00:22.709Z,995.97
2017-11-11T12:01:22.637Z,995.98
2017-11-11T12:02:22.708Z,995.96
2017-11-11T12:03:22.634Z,995.98
2017-11-11T12:04:22.713Z,995.98
2017-11-11T12:05:22.640Z,995.90
2017-11-11T12:06:22.714Z,995.94
2017-11-11T12:07:22.636Z,995.92
2017-11-11T12:08:22.713Z,995.94
2017-11-11T12:09:22.636Z,995.92
2017-11-11T12:10:22.716Z,995.90
2017-11-11T12:11:22.665Z,995.88
2017-11-11T12:12:22.716Z,995.86
2017-11-11T12:13:22.644Z,995.84
2017-11-11T12:14:22.736Z,995.80
2017-11-11T12:15:22.645Z,995.80
2017-11-11T12:16:22.746Z,995.86
2017-11-11T12:17:22.649Z,995.82
2017-11-11T12:18:22.727Z,995.79
2017-11-11T12:19:22.648Z,995.82
2017-11-11T12:20:22.651Z,995.81
2017-11-11T12:21:22.724Z,995.80
2017-11-11T12:22:22.648Z,995.75